sensor_id;sensor_type;location;lat;lon;timestamp;temperature;humidity
47514;DHT22;33951;51.988;5.910;2022-10-16T05:01:35;12.80;99.90
47514;DHT22;33951;51.988;5.910;2022-10-16T05:04:01;12.90;99.90
47514;DHT22;33951;51.988;5.910;2022-10-16T05:06:34;13.00;99.90
47514;DHT22;33951;51.988;5.910;2022-10-16T05:09:17;12.90;99.90
47514;DHT22;33951;51.988;5.910;2022-10-16T05:11:48;13.00;99.90
47514;DHT22;33951;51.988;5.910;2022-10-16T05:14:16;13.00;99.90
47514;DHT22;33951;51.988;5.910;2022-10-16T06:11:48;12.00;99.90
47514;DHT22;33951;51.988;5.910;2022-10-16T06:17:37;12.10;99.90
47514;DHT22;33951;51.988;5.910;2022-10-16T06:20:34;12.10;99.90
47514;DHT22;33951;51.988;5.910;2022-10-16T06:23:18;12.20;99.90
47514;DHT22;33951;51.988;5.910;2022-10-16T06:25:49;12.30;99.90
47514;DHT22;33951;51.988;5.910;2022-10-16T06:28:39;12.20;99.90
47514;DHT22;33951;51.988;5.910;2022-10-16T06:31:13;12.10;99.90
47514;DHT22;33951;51.988;5.910;2022-10-16T06:36:46;12.10;99.90
47514;DHT22;33951;51.988;5.910;2022-10-16T06:39:20;12.20;99.90
47514;DHT22;33951;51.988;5.910;2022-10-16T06:41:46;12.20;99.90
47514;DHT22;33951;51.988;5.910;2022-10-16T06:44:34;12.20;99.90
47514;DHT22;33951;51.988;5.910;2022-10-16T06:50:39;12.40;99.90
47514;DHT22;33951;51.988;5.910;2022-10-16T06:53:18;12.40;99.90
47514;DHT22;33951;51.988;5.910;2022-10-16T07:22:23;12.90;99.90
47514;DHT22;33951;51.988;5.910;2022-10-16T07:25:01;13.00;99.90
47514;DHT22;33951;51.988;5.910;2022-10-16T07:31:28;13.00;99.90
47514;DHT22;33951;51.988;5.910;2022-10-16T09:51:36;15.40;99.90
47514;DHT22;33951;51.988;5.910;2022-10-16T09:57:32;15.60;99.90
47514;DHT22;33951;51.988;5.910;2022-10-16T10:00:30;15.60;99.90
47514;DHT22;33951;51.988;5.910;2022-10-16T10:03:55;15.80;99.90
47514;DHT22;33951;51.988;5.910;2022-10-16T10:17:27;16.50;99.90
47514;DHT22;33951;51.988;5.910;2022-10-16T10:20:33;16.70;99.90
47514;DHT22;33951;51.988;5.910;2022-10-16T10:46:00;17.90;99.90
47514;DHT22;33951;51.988;5.910;2022-10-16T10:55:40;18.10;99.90
47514;DHT22;33951;51.988;5.910;2022-10-16T11:01:55;18.20;99.90
47514;DHT22;33951;51.988;5.910;2022-10-16T11:07:19;18.20;99.90
47514;DHT22;33951;51.988;5.910;2022-10-16T11:10:20;18.10;99.90
47514;DHT22;33951;51.988;5.910;2022-10-16T11:16:38;18.70;99.90
47514;DHT22;33951;51.988;5.910;2022-10-16T11:22:16;19.20;99.90
47514;DHT22;33951;51.988;5.910;2022-10-16T11:25:01;19.10;99.90
47514;DHT22;33951;51.988;5.910;2022-10-16T11:33:37;19.20;99.90
47514;DHT22;33951;51.988;5.910;2022-10-16T11:36:42;18.90;99.90
47514;DHT22;33951;51.988;5.910;2022-10-16T11:39:40;19.10;99.90
47514;DHT22;33951;51.988;5.910;2022-10-16T11:42:37;19.10;99.90
47514;DHT22;33951;51.988;5.910;2022-10-16T11:45:23;19.10;99.90
47514;DHT22;33951;51.988;5.910;2022-10-16T11:48:11;19.30;99.90
47514;DHT22;33951;51.988;5.910;2022-10-16T11:51:02;19.60;99.90
47514;DHT22;33951;51.988;5.910;2022-10-16T11:56:58;20.40;99.90
47514;DHT22;33951;51.988;5.910;2022-10-16T12:02:30;20.00;99.90
47514;DHT22;33951;51.988;5.910;2022-10-16T12:08:09;20.10;99.90
47514;DHT22;33951;51.988;5.910;2022-10-16T12:10:42;20.00;99.90
47514;DHT22;33951;51.988;5.910;2022-10-16T12:16:25;20.00;99.90
47514;DHT22;33951;51.988;5.910;2022-10-16T12:21:49;19.90;99.90
47514;DHT22;33951;51.988;5.910;2022-10-16T12:24:51;19.90;99.90
47514;DHT22;33951;51.988;5.910;2022-10-16T12:31:36;19.80;99.90
47514;DHT22;33951;51.988;5.910;2022-10-16T12:34:05;20.00;99.90
47514;DHT22;33951;51.988;5.910;2022-10-16T12:39:43;20.50;99.90
47514;DHT22;33951;51.988;5.910;2022-10-16T12:42:41;21.10;99.90
47514;DHT22;33951;51.988;5.910;2022-10-16T13:46:24;20.90;99.90
47514;DHT22;33951;51.988;5.910;2022-10-16T13:49:05;20.90;99.90
47514;DHT22;33951;51.988;5.910;2022-10-16T13:51:37;20.70;99.90
47514;DHT22;33951;51.988;5.910;2022-10-16T13:54:13;21.00;99.90
47514;DHT22;33951;51.988;5.910;2022-10-16T13:56:39;21.10;99.90
47514;DHT22;33951;51.988;5.910;2022-10-16T13:59:34;21.30;99.90
47514;DHT22;33951;51.988;5.910;2022-10-16T14:02:10;21.60;99.90
47514;DHT22;33951;51.988;5.910;2022-10-16T14:04:47;21.80;99.90
47514;DHT22;33951;51.988;5.910;2022-10-16T14:07:19;22.10;99.90
47514;DHT22;33951;51.988;5.910;2022-10-16T14:09:50;22.20;99.90
47514;DHT22;33951;51.988;5.910;2022-10-16T14:12:19;21.80;99.90
47514;DHT22;33951;51.988;5.910;2022-10-16T14:14:48;21.80;99.90
47514;DHT22;33951;51.988;5.910;2022-10-16T14:17:35;21.70;99.90
47514;DHT22;33951;51.988;5.910;2022-10-16T14:20:05;21.10;99.90
47514;DHT22;33951;51.988;5.910;2022-10-16T14:22:39;20.80;99.90
47514;DHT22;33951;51.988;5.910;2022-10-16T14:28:21;21.10;99.90
47514;DHT22;33951;51.988;5.910;2022-10-16T14:31:02;21.10;99.90
47514;DHT22;33951;51.988;5.910;2022-10-16T14:33:41;20.80;99.90
47514;DHT22;33951;51.988;5.910;2022-10-16T14:36:33;20.70;99.90
47514;DHT22;33951;51.988;5.910;2022-10-16T14:42:39;21.00;99.90
47514;DHT22;33951;51.988;5.910;2022-10-16T14:45:34;20.90;99.90
47514;DHT22;33951;51.988;5.910;2022-10-16T14:48:32;21.10;99.90
47514;DHT22;33951;51.988;5.910;2022-10-16T14:50:58;21.30;99.90
47514;DHT22;33951;51.988;5.910;2022-10-16T14:53:24;21.50;99.90
47514;DHT22;33951;51.988;5.910;2022-10-16T14:55:55;21.30;99.90
47514;DHT22;33951;51.988;5.910;2022-10-16T14:58:23;21.30;99.90
47514;DHT22;33951;51.988;5.910;2022-10-16T15:00:59;21.10;99.90
47514;DHT22;33951;51.988;5.910;2022-10-16T15:03:28;21.10;99.90
47514;DHT22;33951;51.988;5.910;2022-10-16T15:05:53;21.10;99.90
47514;DHT22;33951;51.988;5.910;2022-10-16T15:08:28;21.20;99.90
47514;DHT22;33951;51.988;5.910;2022-10-16T15:10:57;21.00;99.90
47514;DHT22;33951;51.988;5.910;2022-10-16T15:13:25;21.10;99.90
47514;DHT22;33951;51.988;5.910;2022-10-16T15:16:36;21.20;99.90
47514;DHT22;33951;51.988;5.910;2022-10-16T15:19:04;21.20;99.90
47514;DHT22;33951;51.988;5.910;2022-10-16T15:21:37;21.00;99.90
47514;DHT22;33951;51.988;5.910;2022-10-16T15:24:16;20.90;99.90
47514;DHT22;33951;51.988;5.910;2022-10-16T15:26:44;20.90;99.90
47514;DHT22;33951;51.988;5.910;2022-10-16T15:29:12;20.30;99.90
47514;DHT22;33951;51.988;5.910;2022-10-16T15:31:53;20.10;99.90
47514;DHT22;33951;51.988;5.910;2022-10-16T15:34:19;19.70;99.90
47514;DHT22;33951;51.988;5.910;2022-10-16T15:36:52;19.80;99.90
47514;DHT22;33951;51.988;5.910;2022-10-16T15:39:26;19.90;99.90
47514;DHT22;33951;51.988;5.910;2022-10-16T15:41:54;20.00;99.90
47514;DHT22;33951;51.988;5.910;2022-10-16T15:44:35;20.00;99.90
47514;DHT22;33951;51.988;5.910;2022-10-16T15:47:20;20.10;99.90
47514;DHT22;33951;51.988;5.910;2022-10-16T15:50:18;20.20;99.90
47514;DHT22;33951;51.988;5.910;2022-10-16T15:52:47;20.20;99.90
47514;DHT22;33951;51.988;5.910;2022-10-16T15:55:44;19.90;99.90
47514;DHT22;33951;51.988;5.910;2022-10-16T16:28:47;19.40;99.90
47514;DHT22;33951;51.988;5.910;2022-10-16T16:39:09;19.40;99.90
47514;DHT22;33951;51.988;5.910;2022-10-16T16:49:44;19.10;99.90
47514;DHT22;33951;51.988;5.910;2022-10-16T16:56:02;19.00;99.90
47514;DHT22;33951;51.988;5.910;2022-10-16T17:06:14;18.60;99.90
47514;DHT22;33951;51.988;5.910;2022-10-16T17:10:20;18.60;99.90
47514;DHT22;33951;51.988;5.910;2022-10-16T17:26:24;18.20;99.90
47514;DHT22;33951;51.988;5.910;2022-10-16T17:32:37;18.00;99.90
47514;DHT22;33951;51.988;5.910;2022-10-16T17:54:04;17.80;99.90
47514;DHT22;33951;51.988;5.910;2022-10-16T18:45:23;17.20;99.90
47514;DHT22;33951;51.988;5.910;2022-10-16T19:34:04;17.20;99.90
47514;DHT22;33951;51.988;5.910;2022-10-16T19:46:03;17.00;99.90
47514;DHT22;33951;51.988;5.910;2022-10-16T19:48:35;17.00;99.90
47514;DHT22;33951;51.988;5.910;2022-10-16T19:57:18;16.90;99.90
47514;DHT22;33951;51.988;5.910;2022-10-16T19:59:55;16.90;99.90
47514;DHT22;33951;51.988;5.910;2022-10-16T20:09:11;16.80;99.90
47514;DHT22;33951;51.988;5.910;2022-10-16T20:11:58;16.90;99.90
47514;DHT22;33951;51.988;5.910;2022-10-16T20:14:34;16.90;99.90
47514;DHT22;33951;51.988;5.910;2022-10-16T20:17:42;16.90;99.90
47514;DHT22;33951;51.988;5.910;2022-10-16T20:20:16;16.90;99.90
47514;DHT22;33951;51.988;5.910;2022-10-16T20:22:47;16.90;99.90
47514;DHT22;33951;51.988;5.910;2022-10-16T20:25:22;16.90;99.90
47514;DHT22;33951;51.988;5.910;2022-10-16T20:28:12;17.00;99.90
47514;DHT22;33951;51.988;5.910;2022-10-16T20:33:51;17.00;99.90
47514;DHT22;33951;51.988;5.910;2022-10-16T20:36:19;17.00;99.90
47514;DHT22;33951;51.988;5.910;2022-10-16T20:38:48;17.00;99.90
47514;DHT22;33951;51.988;5.910;2022-10-16T20:42:01;17.00;99.90
47514;DHT22;33951;51.988;5.910;2022-10-16T20:44:36;16.80;99.90
47514;DHT22;33951;51.988;5.910;2022-10-16T20:47:16;16.90;99.90
47514;DHT22;33951;51.988;5.910;2022-10-16T20:49:42;16.90;99.90
47514;DHT22;33951;51.988;5.910;2022-10-16T20:52:19;16.90;99.90
47514;DHT22;33951;51.988;5.910;2022-10-16T20:54:52;16.80;99.90
47514;DHT22;33951;51.988;5.910;2022-10-16T20:57:39;16.80;99.90
47514;DHT22;33951;51.988;5.910;2022-10-16T21:00:09;16.80;99.90
47514;DHT22;33951;51.988;5.910;2022-10-16T21:03:31;16.80;99.90
47514;DHT22;33951;51.988;5.910;2022-10-16T21:06:44;16.80;99.90
47514;DHT22;33951;51.988;5.910;2022-10-16T21:09:39;16.80;99.90
47514;DHT22;33951;51.988;5.910;2022-10-16T21:19:07;16.80;99.90
47514;DHT22;33951;51.988;5.910;2022-10-16T21:21:59;16.70;99.90
47514;DHT22;33951;51.988;5.910;2022-10-16T21:24:50;16.70;99.90
47514;DHT22;33951;51.988;5.910;2022-10-16T21:33:37;16.50;99.90
47514;DHT22;33951;51.988;5.910;2022-10-16T21:36:41;16.50;99.90
47514;DHT22;33951;51.988;5.910;2022-10-16T21:40:14;16.70;99.90
47514;DHT22;33951;51.988;5.910;2022-10-16T21:43:05;16.60;99.90
47514;DHT22;33951;51.988;5.910;2022-10-16T21:45:37;16.50;99.90
47514;DHT22;33951;51.988;5.910;2022-10-16T21:48:22;16.50;99.90
47514;DHT22;33951;51.988;5.910;2022-10-16T21:51:10;16.50;99.90
47514;DHT22;33951;51.988;5.910;2022-10-16T21:54:01;16.50;99.90
47514;DHT22;33951;51.988;5.910;2022-10-16T21:56:40;16.60;99.90
47514;DHT22;33951;51.988;5.910;2022-10-16T21:59:29;16.70;99.90
47514;DHT22;33951;51.988;5.910;2022-10-16T22:02:25;16.60;99.90
47514;DHT22;33951;51.988;5.910;2022-10-16T22:08:12;16.60;99.90
47514;DHT22;33951;51.988;5.910;2022-10-16T22:10:45;16.60;99.90
47514;DHT22;33951;51.988;5.910;2022-10-16T22:13:41;16.50;99.90
47514;DHT22;33951;51.988;5.910;2022-10-16T22:19:48;16.60;99.90
47514;DHT22;33951;51.988;5.910;2022-10-16T22:40:11;16.20;99.90
47514;DHT22;33951;51.988;5.910;2022-10-16T23:20:25;15.60;99.90
47514;DHT22;33951;51.988;5.910;2022-10-16T23:23:37;15.60;99.90
47514;DHT22;33951;51.988;5.910;2022-10-16T23:40:27;15.40;99.90
